Time;durP1;ratioP1;P1;durP2;ratioP2;P2;SDS_P1;SDS_P2;PMS_P1;PMS_P2;Temp;Humidity;BMP_temperature;BMP_pressure;BME280_temperature;BME280_humidity;BME280_pressure;Samples;Min_cycle;Max_cycle;Signal;HPM_P1;HPM_P2
2023/08/08 00:04:18;;;;;;;1.27;0.95;;;;;;;17.09;58.11;96911.50;10516057;28;20283;-29
2023/08/08 00:09:19;;;;;;;3.50;1.27;;;;;;;17.11;58.52;96914.06;10527556;28;20036;-29
2023/08/08 00:14:19;;;;;;;2.43;1.00;;;;;;;17.06;58.65;96915.72;10537197;28;20025;-28
2023/08/08 00:19:19;;;;;;;1.80;1.10;;;;;;;17.03;58.95;96925.78;10532234;28;20043;-28
2023/08/08 00:24:20;;;;;;;1.73;0.90;;;;;;;17.07;58.76;96919.94;10548608;28;20663;-29
2023/08/08 00:29:20;;;;;;;5.07;0.93;;;;;;;16.97;59.32;96921.53;10541465;28;20043;-28
2023/08/08 00:34:20;;;;;;;1.27;1.17;;;;;;;16.96;59.00;96913.94;10530585;28;20055;-28
2023/08/08 00:39:21;;;;;;;1.70;0.80;;;;;;;16.95;58.64;96917.28;10531460;28;20397;-28
2023/08/08 00:44:21;;;;;;;4.70;1.00;;;;;;;16.99;58.45;96911.44;10514963;28;20113;-28
2023/08/08 00:49:23;;;;;;;1.47;0.90;;;;;;;16.98;58.45;96903.00;10543214;28;20293;-28
2023/08/08 00:54:23;;;;;;;2.17;1.20;;;;;;;16.94;58.17;96890.31;10524601;28;20298;-28
2023/08/08 00:59:24;;;;;;;2.00;0.90;;;;;;;16.96;58.42;96894.56;10541272;28;20119;-28
2023/08/08 01:04:26;;;;;;;4.90;0.90;;;;;;;16.87;58.08;96883.50;10532248;28;20156;-28
2023/08/08 01:09:41;;;;;;;0.70;0.70;;;;;;;16.93;57.82;96891.16;10516245;28;20082;-28
2023/08/08 01:14:43;;;;;;;2.35;0.80;;;;;;;16.89;57.87;96895.31;10544237;28;20104;-29
2023/08/08 01:19:46;;;;;;;2.92;0.93;;;;;;;16.88;57.65;96893.63;10538091;28;20089;-28
2023/08/08 01:24:46;;;;;;;5.03;1.00;;;;;;;16.84;57.73;96889.38;10536207;28;20541;-28
2023/08/08 01:29:46;;;;;;;2.40;1.03;;;;;;;16.83;57.58;96891.91;10533430;28;20023;-28
2023/08/08 01:34:48;;;;;;;4.13;0.75;;;;;;;16.84;57.55;96888.53;10545643;28;20505;-28
2023/08/08 01:39:50;;;;;;;1.90;1.13;;;;;;;16.78;57.48;96883.41;10549300;28;20023;-28
2023/08/08 01:44:53;;;;;;;1.77;0.90;;;;;;;16.81;57.10;96880.94;10533982;28;20024;-28
2023/08/08 01:49:53;;;;;;;1.40;1.13;;;;;;;16.77;57.38;96881.72;10538162;28;20032;-27
2023/08/08 01:54:53;;;;;;;2.30;0.90;;;;;;;16.73;57.37;96880.84;10537802;28;20066;-29
2023/08/08 01:59:54;;;;;;;4.15;1.08;;;;;;;16.73;57.19;96874.97;10523430;28;20032;-28
2023/08/08 02:04:55;;;;;;;1.20;0.83;;;;;;;16.69;57.16;96875.75;10541653;28;20075;-28
2023/08/08 02:09:55;;;;;;;0.90;0.80;;;;;;;16.76;56.98;96874.97;10529235;28;20039;-29
2023/08/08 02:14:59;;;;;;;1.80;0.90;;;;;;;16.73;56.83;96874.97;10547813;28;20113;-28
2023/08/08 02:19:59;;;;;;;3.83;0.93;;;;;;;16.69;57.18;96877.44;10535243;28;20058;-28
2023/08/08 02:24:59;;;;;;;4.53;1.03;;;;;;;16.64;57.13;96879.94;10527605;28;20034;-29
2023/08/08 02:30:00;;;;;;;1.03;0.63;;;;;;;16.61;57.02;96874.84;10520143;28;20054;-28
2023/08/08 02:35:00;;;;;;;4.80;1.33;;;;;;;16.55;56.75;96879.81;10527292;28;20290;-28
2023/08/08 02:40:01;;;;;;;1.58;0.60;;;;;;;16.55;57.07;96889.94;10522408;28;20102;-28
2023/08/08 02:45:02;;;;;;;1.08;0.70;;;;;;;16.52;56.92;96889.06;10529179;28;20047;-29
2023/08/08 02:50:02;;;;;;;1.15;0.98;;;;;;;16.48;57.22;96887.34;10514003;28;20028;-29
2023/08/08 02:55:04;;;;;;;12.27;1.30;;;;;;;16.50;57.39;96878.09;10524877;28;20061;-28
2023/08/08 03:00:08;;;;;;;0.93;0.50;;;;;;;16.52;56.79;96872.22;10517093;28;20093;-29
2023/08/08 03:05:13;;;;;;;1.15;0.88;;;;;;;16.53;56.76;96865.50;10519488;28;20035;-28
2023/08/08 03:10:14;;;;;;;1.73;1.05;;;;;;;16.50;56.80;96870.50;10510273;28;20033;-28
2023/08/08 03:15:16;;;;;;;2.10;1.08;;;;;;;16.52;56.79;96858.75;10508932;28;20130;-28
2023/08/08 03:20:17;;;;;;;1.63;0.95;;;;;;;16.48;56.98;96857.88;10534647;28;20106;-28
2023/08/08 03:25:17;;;;;;;0.77;0.60;;;;;;;16.36;57.02;96847.59;10515735;28;20032;-28
2023/08/08 03:30:18;;;;;;;2.10;0.90;;;;;;;16.38;56.71;96855.22;10542919;28;20036;-28
2023/08/08 03:35:18;;;;;;;1.17;0.65;;;;;;;16.45;56.60;96867.94;10536018;28;20036;-28
2023/08/08 03:40:19;;;;;;;2.10;0.95;;;;;;;16.41;56.62;96863.69;10528311;28;20049;-28
2023/08/08 03:45:20;;;;;;;1.33;0.95;;;;;;;16.45;56.71;96870.44;10523107;28;20035;-28
2023/08/08 03:50:20;;;;;;;3.17;0.85;;;;;;;16.45;57.05;96867.94;10528903;28;20036;-28
2023/08/08 03:55:21;;;;;;;1.63;0.88;;;;;;;16.46;56.63;96869.63;10539621;28;20577;-28
2023/08/08 04:00:22;;;;;;;2.93;1.23;;;;;;;16.50;56.46;96871.34;10513693;28;20421;-27
2023/08/08 04:05:22;;;;;;;3.23;0.93;;;;;;;16.54;56.59;96868.03;10530208;28;20297;-28
2023/08/08 04:10:22;;;;;;;0.80;0.63;;;;;;;16.58;56.60;96869.75;10513122;28;20830;-29
2023/08/08 04:15:23;;;;;;;1.10;0.80;;;;;;;16.47;56.88;96873.88;10528607;28;20036;-28
2023/08/08 04:20:24;;;;;;;1.60;0.70;;;;;;;16.46;56.85;96879.72;10509874;28;20059;-29
2023/08/08 04:25:26;;;;;;;2.30;1.08;;;;;;;16.56;56.39;96879.00;10527941;28;20437;-30
2023/08/08 04:30:26;;;;;;;1.00;0.90;;;;;;;16.72;56.31;96880.00;10540017;28;20028;-29
2023/08/08 04:35:26;;;;;;;2.13;0.90;;;;;;;16.75;55.71;96878.34;10526916;28;20486;-29
2023/08/08 04:40:27;;;;;;;1.53;0.70;;;;;;;16.80;55.79;96877.53;10539332;28;20277;-28
2023/08/08 04:45:29;;;;;;;1.38;1.00;;;;;;;16.81;55.59;96875.88;10541985;28;20074;-28
2023/08/08 04:50:29;;;;;;;1.02;0.57;;;;;;;16.86;56.05;96879.28;10548194;28;20036;-29
2023/08/08 04:55:29;;;;;;;2.13;0.83;;;;;;;16.77;55.77;96884.25;10534833;28;20024;-28
2023/08/08 05:00:30;;;;;;;1.00;0.70;;;;;;;16.81;55.88;96893.59;10536933;28;20036;-29
2023/08/08 05:05:30;;;;;;;2.00;0.97;;;;;;;16.80;55.49;96896.91;10528645;28;20055;-28
2023/08/08 05:10:31;;;;;;;8.53;1.07;;;;;;;16.82;56.14;96890.22;10535491;28;20293;-29
2023/08/08 05:15:31;;;;;;;3.60;1.10;;;;;;;17.29;55.30;96883.84;10534888;28;20045;-28
2023/08/08 05:20:31;;;;;;;2.90;0.80;;;;;;;17.45;55.14;96870.50;10524110;28;20036;-28
2023/08/08 05:25:32;;;;;;;5.77;1.20;;;;;;;17.43;55.39;96862.91;10533432;28;20127;-28
2023/08/08 05:30:33;;;;;;;3.30;0.80;;;;;;;17.59;55.27;96868.91;10524555;28;20090;-28
2023/08/08 05:35:33;;;;;;;2.80;0.70;;;;;;;17.49;55.46;96857.03;10533986;28;20040;-28
2023/08/08 05:40:36;;;;;;;2.87;0.70;;;;;;;17.62;55.52;96857.09;10526981;28;20020;-27
2023/08/08 05:45:36;;;;;;;1.20;0.80;;;;;;;17.73;55.62;96859.69;10528693;28;20032;-28
2023/08/08 05:50:37;;;;;;;3.53;0.70;;;;;;;17.72;55.38;96870.63;10531170;28;20024;-28
2023/08/08 05:55:41;;;;;;;1.58;0.70;;;;;;;17.74;55.37;96863.94;10536157;28;20065;-29
2023/08/08 06:00:42;;;;;;;1.80;0.75;;;;;;;17.73;55.25;96869.84;10532159;28;20059;-27
2023/08/08 06:05:43;;;;;;;2.05;0.80;;;;;;;17.76;55.67;96872.38;10534257;28;20037;-28
2023/08/08 06:10:43;;;;;;;2.58;0.70;;;;;;;17.81;55.64;96870.69;10533671;28;20029;-29
2023/08/08 06:15:43;;;;;;;1.30;0.80;;;;;;;17.95;55.36;96871.59;10524148;28;20509;-28
2023/08/08 06:20:44;;;;;;;1.83;0.80;;;;;;;18.01;55.27;96874.19;10526298;28;20486;-28
2023/08/08 06:25:44;;;;;;;1.53;0.70;;;;;;;17.96;55.34;96865.69;10536462;28;20340;-28
2023/08/08 06:30:45;;;;;;;1.70;0.87;;;;;;;17.92;55.43;96867.38;10528157;28;20036;-28
2023/08/08 06:35:45;;;;;;;1.00;0.73;;;;;;;17.92;55.76;96858.94;10527589;28;20039;-28
2023/08/08 06:40:45;;;;;;;1.07;0.57;;;;;;;17.91;55.94;96859.78;10522859;28;20036;-28
2023/08/08 06:45:46;;;;;;;1.40;0.80;;;;;;;17.91;55.94;96863.16;10535219;28;20312;-30
2023/08/08 06:50:46;;;;;;;2.43;0.90;;;;;;;17.94;55.62;96858.13;10535327;28;20040;-28
2023/08/08 06:55:47;;;;;;;1.02;0.57;;;;;;;18.01;55.74;96858.97;10525140;28;20036;-28
2023/08/08 07:00:47;;;;;;;1.33;0.60;;;;;;;17.98;55.54;96857.28;10535064;28;20031;-29
2023/08/08 07:05:51;;;;;;;0.93;0.53;;;;;;;18.00;55.52;96859.81;10535063;28;20366;-28
2023/08/08 07:10:52;;;;;;;1.23;0.63;;;;;;;18.06;55.38;96857.28;10528469;28;20037;-29
2023/08/08 07:15:53;;;;;;;0.60;0.55;;;;;;;18.12;55.49;96857.31;10528105;28;20370;-28
2023/08/08 07:20:53;;;;;;;1.42;1.05;;;;;;;18.21;56.75;96852.28;10541204;28;20320;-28
2023/08/08 07:25:54;;;;;;;1.50;0.70;;;;;;;18.26;56.34;96846.38;10525368;28;20032;-28
2023/08/08 07:30:54;;;;;;;1.05;0.65;;;;;;;18.22;55.72;96846.38;10539127;28;20051;-32
2023/08/08 07:35:54;;;;;;;0.67;0.67;;;;;;;18.20;55.59;96848.06;10542583;28;20089;-28
2023/08/08 07:40:55;;;;;;;1.00;0.60;;;;;;;18.14;55.38;96830.28;10523712;28;20028;-28
2023/08/08 07:45:55;;;;;;;0.73;0.47;;;;;;;18.18;55.58;96842.97;10528826;28;20135;-28
2023/08/08 07:50:55;;;;;;;1.20;0.80;;;;;;;18.19;55.59;96847.22;10533204;28;20301;-29
2023/08/08 07:55:56;;;;;;;1.87;0.53;;;;;;;18.20;55.58;96835.38;10540463;28;20770;-29
2023/08/08 08:00:56;;;;;;;1.00;0.80;;;;;;;18.21;55.45;96837.06;10533894;28;20139;-28
2023/08/08 08:05:57;;;;;;;0.73;0.50;;;;;;;18.21;55.76;96839.63;10554959;28;20032;-29
2023/08/08 08:10:57;;;;;;;1.15;0.60;;;;;;;18.21;55.73;96842.16;10531972;28;20418;-29
2023/08/08 08:15:58;;;;;;;0.93;0.80;;;;;;;18.21;55.66;96819.34;10529128;28;20558;-28
2023/08/08 08:20:58;;;;;;;0.75;0.55;;;;;;;18.23;55.63;96826.09;10525839;28;20035;-28
2023/08/08 08:25:59;;;;;;;1.90;0.83;;;;;;;18.32;56.84;96818.56;10544935;28;20370;-28
2023/08/08 08:31:07;;;;;;;0.60;0.57;;;;;;;18.36;56.68;96822.81;10531928;28;20036;-28
2023/08/08 08:36:07;;;;;;;1.35;0.80;;;;;;;18.33;56.35;96827.84;10531714;28;20059;-29
2023/08/08 08:41:12;;;;;;;0.63;0.57;;;;;;;18.20;56.38;96810.03;10527597;28;20047;-29
2023/08/08 08:46:14;;;;;;;1.95;0.73;;;;;;;18.27;55.78;96814.28;10537665;28;20086;-28
2023/08/08 08:51:16;;;;;;;1.35;0.88;;;;;;;18.27;55.82;96826.97;10522266;28;20036;-29
2023/08/08 08:56:16;;;;;;;0.77;0.60;;;;;;;18.27;55.85;96812.63;10519592;28;20048;-28
2023/08/08 09:01:18;;;;;;;0.80;0.50;;;;;;;18.27;55.94;96821.91;10523612;28;20032;-29
2023/08/08 09:06:20;;;;;;;0.60;0.60;;;;;;;18.27;55.94;96814.28;10520977;28;20528;-28
2023/08/08 09:11:21;;;;;;;1.58;0.60;;;;;;;18.28;56.49;96823.59;10521023;28;20394;-29
2023/08/08 09:16:21;;;;;;;1.37;0.80;;;;;;;18.27;55.93;96812.63;10540030;28;20027;-28
2023/08/08 09:21:22;;;;;;;0.70;0.60;;;;;;;18.29;55.92;96825.28;10524252;28;20032;-29
2023/08/08 09:26:22;;;;;;;1.48;0.90;;;;;;;18.34;56.89;96821.09;10540020;28;20027;-28
2023/08/08 09:31:25;;;;;;;0.93;0.60;;;;;;;18.41;57.16;96815.22;10535568;28;20028;-28
2023/08/08 09:36:26;;;;;;;1.40;0.63;;;;;;;18.45;57.01;96809.28;10534092;28;20270;-29
2023/08/08 09:41:26;;;;;;;0.45;0.45;;;;;;;18.40;56.57;96813.53;10531426;28;20036;-29
2023/08/08 09:46:31;;;;;;;1.30;0.80;;;;;;;18.36;55.91;96815.19;10530664;28;20042;-29
2023/08/08 09:51:33;;;;;;;0.73;0.60;;;;;;;18.33;56.20;96799.16;10537887;28;20040;-28
2023/08/08 09:56:34;;;;;;;0.75;0.60;;;;;;;18.32;56.23;96794.91;10525365;28;20402;-29
2023/08/08 10:01:35;;;;;;;1.10;0.90;;;;;;;18.34;56.03;96803.38;10537241;28;20038;-28
2023/08/08 10:06:35;;;;;;;0.75;0.50;;;;;;;18.33;56.27;96792.38;10531671;28;20032;-29
2023/08/08 10:11:36;;;;;;;0.90;0.50;;;;;;;18.34;56.19;96798.28;10539057;28;20486;-29
2023/08/08 10:16:37;;;;;;;1.23;0.52;;;;;;;18.34;56.38;96786.44;10538547;28;20046;-29
2023/08/08 10:21:43;;;;;;;0.55;0.50;;;;;;;18.33;56.37;96781.41;10546803;28;20036;-28
2023/08/08 10:26:57;;;;;;;1.07;0.97;;;;;;;18.33;56.27;96779.69;10531706;28;20036;-28
2023/08/08 10:32:06;;;;;;;1.92;0.50;;;;;;;18.43;57.42;96783.09;10531786;28;20044;-28
2023/08/08 10:37:24;;;;;;;0.70;0.57;;;;;;;18.50;57.32;96792.41;10535256;28;20036;-28
2023/08/08 10:42:27;;;;;;;1.10;0.68;;;;;;;18.44;57.00;96779.72;10542651;28;20028;-28
2023/08/08 10:47:34;;;;;;;0.52;0.50;;;;;;;18.45;56.60;96786.47;10531647;28;20028;-28
2023/08/08 10:52:55;;;;;;;0.73;0.50;;;;;;;18.40;56.29;96790.72;10531505;28;20454;-28
2023/08/08 10:57:57;;;;;;;1.73;0.70;;;;;;;18.39;56.33;96782.25;10534856;28;20061;-29
2023/08/08 11:02:59;;;;;;;2.00;0.65;;;;;;;18.47;57.14;96785.63;10533993;28;20027;-28
2023/08/08 11:08:00;;;;;;;0.82;0.68;;;;;;;18.48;56.36;96781.38;10539269;28;20058;-28
2023/08/08 11:13:03;;;;;;;1.73;1.00;;;;;;;18.60;55.40;96778.88;10534155;28;20044;-28
2023/08/08 11:18:04;;;;;;;1.15;0.80;;;;;;;18.61;54.65;96773.81;10524692;28;20425;-27
2023/08/08 11:23:05;;;;;;;1.55;0.90;;;;;;;18.61;54.42;96771.28;10541891;28;20078;-29
2023/08/08 11:28:06;;;;;;;2.47;0.90;;;;;;;18.54;55.41;96781.41;10533852;28;20136;-29
2023/08/08 11:33:06;;;;;;;1.83;0.90;;;;;;;18.53;55.18;96769.56;10536217;28;20069;-28
2023/08/08 11:38:07;;;;;;;1.02;0.75;;;;;;;18.61;54.27;96762.81;10521370;28;20054;-29
2023/08/08 11:43:08;;;;;;;2.47;1.05;;;;;;;18.72;53.51;96759.44;10531701;28;20029;-29
2023/08/08 11:48:09;;;;;;;2.50;1.20;;;;;;;18.64;54.20;96767.88;10540770;28;20039;-28
2023/08/08 11:53:10;;;;;;;1.25;0.77;;;;;;;18.60;54.26;96763.66;10540577;28;20032;-28
2023/08/08 11:58:14;;;;;;;3.10;1.00;;;;;;;18.54;55.15;96756.06;10529779;28;20487;-28
2023/08/08 12:03:17;;;;;;;0.60;0.60;;;;;;;18.56;54.93;96756.88;10519804;28;20464;-28
2023/08/08 12:08:19;;;;;;;0.90;0.70;;;;;;;18.53;55.32;96759.44;10527379;28;20417;-28
2023/08/08 12:13:21;;;;;;;2.03;0.85;;;;;;;18.52;55.11;96755.22;10520906;28;20042;-29
2023/08/08 12:18:22;;;;;;;1.42;0.70;;;;;;;18.50;55.67;96756.91;10526504;28;20047;-28
2023/08/08 12:23:22;;;;;;;4.30;1.25;;;;;;;18.52;55.08;96747.59;10531623;28;20036;-28
2023/08/08 12:28:23;;;;;;;0.73;0.67;;;;;;;18.72;52.83;96750.97;10515893;28;20042;-28
2023/08/08 12:33:23;;;;;;;3.13;1.08;;;;;;;18.65;53.57;96751.81;10532125;28;20231;-28
2023/08/08 12:38:23;;;;;;;3.93;1.27;;;;;;;18.64;53.98;96737.44;10531369;28;20036;-29
2023/08/08 12:43:24;;;;;;;1.80;0.97;;;;;;;18.77;52.74;96727.28;10524615;28;20040;-28
2023/08/08 12:48:24;;;;;;;4.93;1.17;;;;;;;18.83;53.29;96734.09;10521868;28;20032;-29
2023/08/08 12:53:25;;;;;;;2.53;1.00;;;;;;;18.70;53.81;96737.47;10531811;28;20028;-29
2023/08/08 12:58:25;;;;;;;1.35;0.98;;;;;;;18.68;54.29;96744.22;10526893;28;20283;-29
2023/08/08 13:03:25;;;;;;;1.10;0.73;;;;;;;18.62;54.75;96736.63;10529039;28;20375;-29
2023/08/08 13:08:26;;;;;;;3.05;1.00;;;;;;;18.57;54.97;96739.16;10539889;28;20058;-30
2023/08/08 13:13:26;;;;;;;1.43;1.00;;;;;;;18.60;54.97;96740.84;10534062;28;20048;-28
2023/08/08 13:18:26;;;;;;;1.93;0.83;;;;;;;18.63;54.40;96738.31;10539351;28;20443;-29
2023/08/08 13:23:27;;;;;;;2.20;1.00;;;;;;;18.62;54.67;96734.09;10536500;28;20035;-28
2023/08/08 13:28:27;;;;;;;1.47;1.10;;;;;;;18.65;54.23;96739.13;10511559;28;20502;-29
2023/08/08 13:33:28;;;;;;;2.00;0.70;;;;;;;18.57;55.28;96736.63;10539365;28;20097;-28
2023/08/08 13:38:28;;;;;;;2.42;0.80;;;;;;;18.56;55.31;96736.59;10533763;28;20051;-29
2023/08/08 13:43:30;;;;;;;2.80;1.03;;;;;;;18.66;54.27;96735.78;10536024;28;20287;-29
2023/08/08 13:48:30;;;;;;;1.52;1.02;;;;;;;18.82;53.71;96732.41;10534929;28;20036;-28
2023/08/08 13:53:31;;;;;;;2.00;0.97;;;;;;;18.73;54.01;96728.16;10523594;28;20506;-28
2023/08/08 13:58:31;;;;;;;3.07;1.20;;;;;;;18.68;54.58;96729.00;10534847;28;20410;-29
2023/08/08 14:03:32;;;;;;;0.88;0.65;;;;;;;18.61;55.27;96727.31;10533789;28;20066;-28
2023/08/08 14:08:32;;;;;;;1.20;1.00;;;;;;;18.52;55.45;96718.03;10528308;28;20027;-28
2023/08/08 14:13:34;;;;;;;3.60;0.90;;;;;;;18.59;55.32;96729.84;10535609;28;20505;-29
2023/08/08 14:18:35;;;;;;;3.72;1.30;;;;;;;18.56;55.15;96717.19;10532126;28;20410;-28
2023/08/08 14:23:35;;;;;;;1.38;0.80;;;;;;;18.57;55.81;96720.56;10536275;28;20036;-28
2023/08/08 14:28:35;;;;;;;1.90;1.07;;;;;;;18.53;55.95;96723.94;10523882;28;20040;-28
2023/08/08 14:33:36;;;;;;;3.60;1.00;;;;;;;18.49;55.87;96707.06;10536249;28;20293;-28
2023/08/08 14:38:36;;;;;;;1.03;1.00;;;;;;;18.52;55.65;96714.66;10530986;28;20032;-28
2023/08/08 14:43:39;;;;;;;5.25;1.33;;;;;;;18.58;55.83;96723.09;10535752;28;20664;-28
2023/08/08 14:48:39;;;;;;;7.53;1.80;;;;;;;18.67;55.67;96732.41;10535078;28;20499;-29
2023/08/08 14:53:40;;;;;;;8.23;1.70;;;;;;;18.70;55.78;96729.84;10531192;28;20036;-28
2023/08/08 14:58:40;;;;;;;6.43;2.33;;;;;;;18.66;55.66;96726.47;10532280;28;20031;-28
2023/08/08 15:03:42;;;;;;;3.00;1.30;;;;;;;18.60;55.72;96729.00;10533125;28;20043;-29
2023/08/08 15:08:43;;;;;;;2.13;1.02;;;;;;;18.59;55.84;96729.03;10532096;28;20036;-28
2023/08/08 15:13:43;;;;;;;2.38;1.13;;;;;;;18.51;55.99;96725.66;10529938;28;20047;-28
2023/08/08 15:18:44;;;;;;;2.10;1.30;;;;;;;18.56;56.13;96736.59;10534143;28;20051;-28
2023/08/08 15:23:44;;;;;;;3.33;1.50;;;;;;;18.55;56.49;96722.25;10522442;28;20044;-28
2023/08/08 15:28:44;;;;;;;2.20;1.10;;;;;;;18.55;56.23;96727.31;10527678;28;20795;-28
2023/08/08 15:33:45;;;;;;;2.23;0.97;;;;;;;18.53;56.49;96727.34;10534336;28;20339;-28
2023/08/08 15:38:45;;;;;;;3.28;1.05;;;;;;;18.54;56.37;96734.09;10534476;28;20779;-28
2023/08/08 15:43:46;;;;;;;3.07;1.20;;;;;;;18.51;56.29;96718.88;10524253;28;20048;-28
2023/08/08 15:48:46;;;;;;;3.47;1.70;;;;;;;18.65;57.96;96729.84;10529913;28;20039;-28
2023/08/08 15:53:46;;;;;;;5.73;1.87;;;;;;;18.73;57.94;96727.31;10521634;28;20043;-28
2023/08/08 15:58:47;;;;;;;3.07;1.30;;;;;;;18.72;57.46;96723.94;10524239;28;20032;-28
2023/08/08 16:03:47;;;;;;;2.47;1.03;;;;;;;18.68;56.83;96731.56;10521326;28;20039;-28
2023/08/08 16:08:47;;;;;;;1.77;0.90;;;;;;;18.60;56.10;96718.03;10520587;28;20504;-28
2023/08/08 16:13:48;;;;;;;2.90;1.33;;;;;;;18.60;56.46;96721.41;10527453;28;20654;-28
2023/08/08 16:18:48;;;;;;;8.53;1.53;;;;;;;18.59;56.56;96721.41;10523715;28;20032;-28
2023/08/08 16:23:49;;;;;;;3.03;0.90;;;;;;;18.55;56.67;96715.50;10532658;28;20032;-30
2023/08/08 16:28:49;;;;;;;2.47;1.42;;;;;;;18.56;56.55;96721.41;10528237;28;20033;-27
2023/08/08 16:33:50;;;;;;;1.67;0.82;;;;;;;18.55;56.72;96729.84;10530349;28;20062;-29
2023/08/08 16:38:50;;;;;;;2.58;1.20;;;;;;;18.56;56.56;96734.06;10531466;28;20062;-28
2023/08/08 16:44:00;;;;;;;4.17;1.17;;;;;;;18.55;56.61;96727.31;10545621;28;20039;-28
2023/08/08 16:49:01;;;;;;;4.82;1.70;;;;;;;18.62;58.49;96719.72;10553786;28;20039;-28
2023/08/08 16:54:01;;;;;;;4.03;1.47;;;;;;;18.72;58.78;96728.16;10541702;28;20032;-27
2023/08/08 16:59:02;;;;;;;8.93;2.03;;;;;;;18.77;58.36;96734.06;10539025;28;20315;-28
2023/08/08 17:04:03;;;;;;;3.88;1.45;;;;;;;18.73;57.89;96739.97;10541552;28;20036;-28
2023/08/08 17:09:05;;;;;;;5.70;1.95;;;;;;;18.68;57.04;96741.69;10539986;28;20505;-29
2023/08/08 17:14:05;;;;;;;1.90;1.20;;;;;;;18.65;56.96;96739.13;10541745;28;20118;-28
2023/08/08 17:19:06;;;;;;;3.40;1.05;;;;;;;18.62;56.93;96734.09;10552462;28;20499;-28
2023/08/08 17:24:07;;;;;;;4.25;1.08;;;;;;;18.62;57.00;96744.22;10534186;28;20173;-27
2023/08/08 17:29:07;;;;;;;2.27;1.07;;;;;;;18.60;56.91;96730.72;10537489;28;20448;-28
2023/08/08 17:34:07;;;;;;;3.23;1.03;;;;;;;18.61;56.95;96734.94;10544420;28;20300;-28
2023/08/08 17:39:08;;;;;;;2.43;1.43;;;;;;;18.63;56.96;96739.16;10542093;28;20035;-28
2023/08/08 17:44:09;;;;;;;1.77;0.90;;;;;;;18.68;57.17;96746.75;10553222;28;20051;-27
2023/08/08 17:49:09;;;;;;;2.83;1.10;;;;;;;18.72;57.13;96748.44;10540987;28;20047;-28
2023/08/08 17:54:10;;;;;;;2.57;1.20;;;;;;;18.79;60.20;96757.75;10548188;28;20655;-28
2023/08/08 17:59:11;;;;;;;3.55;1.10;;;;;;;18.82;60.08;96742.53;10545105;28;20027;-28
2023/08/08 18:04:12;;;;;;;1.73;1.30;;;;;;;18.86;57.43;96750.16;10540281;28;20107;-28
2023/08/08 18:09:12;;;;;;;2.90;0.95;;;;;;;18.89;58.05;96759.41;10536407;28;20031;-29
2023/08/08 18:14:12;;;;;;;1.27;0.83;;;;;;;18.90;57.94;96753.50;10531394;28;20085;-28
2023/08/08 18:19:14;;;;;;;1.87;1.10;;;;;;;18.89;58.49;96761.94;10536108;28;20652;-26
2023/08/08 18:24:14;;;;;;;4.07;1.30;;;;;;;18.87;58.88;96761.13;10533014;28;20054;-27
2023/08/08 18:29:15;;;;;;;1.40;0.90;;;;;;;18.88;59.23;96753.50;10544660;28;20115;-26
2023/08/08 18:34:15;;;;;;;5.50;1.80;;;;;;;18.88;58.57;96745.03;10537983;28;20036;-27
2023/08/08 18:39:15;;;;;;;1.80;1.13;;;;;;;18.83;58.45;96729.00;10539187;28;20034;-28
2023/08/08 18:44:17;;;;;;;1.67;1.37;;;;;;;18.90;58.91;96730.66;10531830;28;20720;-27
2023/08/08 18:49:17;;;;;;;2.08;1.40;;;;;;;18.92;59.11;96729.81;10533642;28;20517;-28
2023/08/08 18:54:18;;;;;;;3.43;1.60;;;;;;;18.93;58.39;96730.69;10537004;28;20032;-28
2023/08/08 18:59:18;;;;;;;1.77;1.20;;;;;;;18.92;58.11;96744.22;10526933;28;20032;-27
2023/08/08 19:04:18;;;;;;;2.65;1.10;;;;;;;18.88;58.07;96747.59;10532946;28;20489;-28
2023/08/08 19:09:19;;;;;;;0.80;0.80;;;;;;;18.88;58.18;96753.50;10524120;28;20024;-28
2023/08/08 19:14:19;;;;;;;2.00;1.00;;;;;;;18.87;58.41;96740.81;10537766;28;20294;-27
2023/08/08 19:19:21;;;;;;;2.40;1.20;;;;;;;18.87;58.07;96735.75;10530272;28;20644;-28
2023/08/08 19:24:21;;;;;;;3.22;1.20;;;;;;;18.89;58.10;96754.34;10528524;28;20786;-28
2023/08/08 19:29:21;;;;;;;1.20;1.10;;;;;;;18.87;58.13;96756.91;10535379;28;20110;-28
2023/08/08 19:34:22;;;;;;;2.90;0.90;;;;;;;18.92;57.99;96749.28;10526268;28;20815;-28
2023/08/08 19:39:22;;;;;;;3.67;1.00;;;;;;;18.93;58.14;96761.13;10517451;28;20334;-29
2023/08/08 19:44:22;;;;;;;2.77;1.13;;;;;;;19.00;58.76;96766.16;10527319;28;20706;-28
2023/08/08 19:49:23;;;;;;;2.47;1.33;;;;;;;18.99;59.92;96776.34;10531513;28;20036;-28
2023/08/08 19:54:23;;;;;;;2.42;1.17;;;;;;;18.97;58.37;96775.47;10532371;28;20498;-28
2023/08/08 19:59:24;;;;;;;2.67;1.00;;;;;;;18.92;58.26;96764.50;10530290;28;20028;-28
2023/08/08 20:04:25;;;;;;;3.97;2.03;;;;;;;18.89;58.63;96754.34;10531222;28;20323;-28
2023/08/08 20:09:25;;;;;;;1.45;1.02;;;;;;;18.86;58.29;96764.50;10545781;28;20050;-28
2023/08/08 20:14:25;;;;;;;1.90;1.20;;;;;;;18.83;58.27;96764.53;10541366;28;20032;-28
2023/08/08 20:19:26;;;;;;;1.90;1.33;;;;;;;18.83;58.23;96770.41;10542746;28;20036;-28
2023/08/08 20:24:26;;;;;;;2.00;1.00;;;;;;;18.84;58.40;96761.97;10538269;28;20311;-27
2023/08/08 20:29:27;;;;;;;2.07;1.17;;;;;;;18.84;58.23;96772.09;10522270;28;20304;-28
2023/08/08 20:34:30;;;;;;;2.00;0.95;;;;;;;18.83;58.31;96761.97;10544964;28;20448;-28
2023/08/08 20:39:30;;;;;;;4.55;1.23;;;;;;;18.85;58.30;96761.09;10531257;28;20488;-28
2023/08/08 20:44:31;;;;;;;8.25;1.38;;;;;;;18.94;63.91;96760.28;10533270;28;20032;-27
2023/08/08 20:49:31;;;;;;;4.83;1.53;;;;;;;18.93;63.79;96753.50;10523362;28;20031;-28
2023/08/08 20:54:32;;;;;;;1.73;1.07;;;;;;;18.92;59.19;96765.34;10535951;28;20039;-28
2023/08/08 20:59:32;;;;;;;2.30;1.45;;;;;;;18.91;58.50;96757.75;10543555;28;20365;-28
2023/08/08 21:04:32;;;;;;;1.43;0.97;;;;;;;18.89;58.34;96759.41;10547216;28;20458;-28
2023/08/08 21:09:33;;;;;;;1.23;0.80;;;;;;;18.86;58.38;96755.22;10531943;28;20409;-28
2023/08/08 21:14:34;;;;;;;1.30;0.83;;;;;;;18.86;58.45;96754.34;10534381;28;20027;-28
2023/08/08 21:19:34;;;;;;;1.42;0.90;;;;;;;18.85;58.31;96745.06;10539197;28;20032;-28
2023/08/08 21:24:34;;;;;;;2.95;1.00;;;;;;;18.84;58.56;96746.75;10532614;28;20458;-28
2023/08/08 21:29:35;;;;;;;2.50;1.40;;;;;;;18.84;58.33;96753.53;10559828;28;20452;-28
2023/08/08 21:34:35;;;;;;;2.90;0.90;;;;;;;18.86;58.40;96754.34;10538711;28;20035;-28
2023/08/08 21:39:35;;;;;;;2.20;1.47;;;;;;;18.89;63.37;96744.19;10538419;28;20034;-28
2023/08/08 21:44:36;;;;;;;2.50;1.10;;;;;;;18.92;62.81;96751.81;10552387;28;20398;-28
2023/08/08 21:49:36;;;;;;;1.27;1.03;;;;;;;18.94;63.95;96740.84;10551635;28;20036;-28
2023/08/08 21:54:37;;;;;;;1.50;1.10;;;;;;;18.90;59.32;96739.13;10547923;28;20043;-27
2023/08/08 21:59:37;;;;;;;1.05;0.80;;;;;;;18.88;58.95;96729.81;10551682;28;20024;-28
2023/08/08 22:04:37;;;;;;;1.58;0.80;;;;;;;18.88;58.81;96717.13;10537437;28;20020;-28
2023/08/08 22:09:38;;;;;;;1.87;1.07;;;;;;;18.85;58.76;96712.91;10543253;28;20099;-30
2023/08/08 22:14:38;;;;;;;0.80;0.80;;;;;;;18.85;58.90;96718.00;10553631;28;20449;-28
2023/08/08 22:19:38;;;;;;;1.00;0.90;;;;;;;18.83;59.03;96703.66;10531788;28;20036;-28
2023/08/08 22:24:39;;;;;;;1.37;0.73;;;;;;;18.84;58.79;96695.19;10541868;28;20035;-28
2023/08/08 22:29:39;;;;;;;1.03;0.70;;;;;;;18.83;58.94;96693.50;10546041;28;20036;-28
2023/08/08 22:34:40;;;;;;;1.70;0.80;;;;;;;18.85;58.80;96699.41;10546941;28;20031;-28
2023/08/08 22:39:40;;;;;;;1.47;1.20;;;;;;;18.91;62.14;96694.31;10529632;28;20077;-28
2023/08/08 22:44:40;;;;;;;4.43;1.20;;;;;;;18.93;61.94;96697.69;10541427;28;20494;-27
2023/08/08 22:49:41;;;;;;;3.70;1.50;;;;;;;18.93;60.76;96701.06;10549888;28;20482;-28
2023/08/08 22:54:41;;;;;;;2.23;1.17;;;;;;;18.88;59.13;96690.09;10539098;28;20297;-28
2023/08/08 22:59:41;;;;;;;1.37;0.93;;;;;;;18.87;58.84;96690.94;10529301;28;20024;-28
2023/08/08 23:04:42;;;;;;;1.42;0.80;;;;;;;18.85;59.03;96682.47;10540644;28;20358;-28
2023/08/08 23:09:42;;;;;;;0.93;0.70;;;;;;;18.84;59.00;96674.88;10543857;28;20478;-28
2023/08/08 23:14:43;;;;;;;0.90;0.70;;;;;;;18.82;59.03;96684.19;10539222;28;20417;-28
2023/08/08 23:19:43;;;;;;;1.55;0.80;;;;;;;18.80;58.96;96683.34;10537049;28;20028;-28